Marchen Maersk — OUIY2 — position and weather

sailwx.info

Track history (hours):
 
Tides and Currents Weather Stations Pressure Air Temp Water Temp Dewpoint Dewpoint Depression Visibility Wind Speed Wind Dir Waves Ship Positions

Marchen Maersk

Last reported at 2014-Oct-30 04:27 UTC. Time now 2014-Oct-30 16:06 UTC.
Position N 22°05' E 113°53'.

Length 367 m; draft 13.2 m.

Type: Ship (hazmat cat A). MMSI: 220594000.

Date/timePositionNaut miles runAvg speedWind from/ knotsBaromVisibWave heightAir tempDewpointWater temp
2014-Oct-30 04:27N 22°05' E 113°53'6 7.2
2014-Oct-30 03:33N 22°11' E 113°50'1413.8
2014-Oct-30 02:34N 22°24' E 113°46'1413.7
2014-Oct-30 01:33N 22°38' E 113°42'0 0.0
2014-Oct-29 16:33N 22°38' E 113°41'1010.5
2014-Oct-29 15:33N 22°28' E 113°45'1313.1
2014-Oct-29 14:33N 22°15' E 113°48'1110.6
2014-Oct-29 13:34N 22°05' E 113°51'1111.0
2014-Oct-29 12:33N 21°54' E 113°52'18815.6
2014-Oct-29 00:30N 22°57' E 117°04'7818.8
2014-Oct-28 20:23N 23°38' E 118°15'2318.9
2014-Oct-28 19:09N 23°54' E 118°34'3218.6
2014-Oct-28 17:24N 24°16' E 118°60'41510.2
2014-Oct-27 00:33N 30°38' E 122°03'1 0.9
2014-Oct-26 23:31N 30°37' E 122°03'1010.0
2014-Oct-26 22:31N 30°33' E 122°14'13 2.5
2014-Oct-26 17:24N 30°31' E 122°28'8 9.3
2014-Oct-26 16:32N 30°29' E 122°38'1110.8
2014-Oct-26 15:32N 30°26' E 122°49'1111.6
2014-Oct-26 14:33N 30°20' E 123°00'1110.0
2014-Oct-26 13:31N 30°09' E 123°02'28 9.3
2014-Oct-26 10:30N 29°50' E 122°38'9 9.8
2014-Oct-26 09:33N 29°45' E 122°30'1111.1
2014-Oct-26 08:34N 29°46' E 122°17'1212.4
2014-Oct-26 07:33N 29°55' E 122°07'1313.1
2014-Oct-26 06:33N 29°57' E 121°52'2 1.5
2014-Oct-26 05:22N 29°57' E 121°50'0 0.0
2014-Oct-26 04:22N 29°57' E 121°50'0 0.0
2014-Oct-26 03:28N 29°57' E 121°50'0 0.0
2014-Oct-26 02:16N 29°57' E 121°50'0 0.0
2014-Oct-26 01:28N 29°57' E 121°50'0 0.0
2014-Oct-26 00:28N 29°57' E 121°50'0 0.0
2014-Oct-25 22:28N 29°57' E 121°50'0 0.0
2014-Oct-25 21:04N 29°57' E 121°50'0 0.0
2014-Oct-25 20:10N 29°57' E 121°50'0 0.0
2014-Oct-25 19:28N 29°57' E 121°50'0 0.0
2014-Oct-25 18:28N 29°57' E 121°50'1 0.8
2014-Oct-25 17:34N 29°57' E 121°51'7 6.8
2014-Oct-25 16:34N 29°58' E 121°59'6 4.9
2014-Oct-25 15:26N 29°54' E 122°02'0 0.0
2014-Oct-25 14:14N 29°54' E 122°02'0 0.0
2014-Oct-25 12:29N 29°54' E 122°02'0 0.0
2014-Oct-25 11:29N 29°54' E 122°02'0 0.0
2014-Oct-25 09:32N 29°54' E 122°02'0 0.0
2014-Oct-25 08:23N 29°54' E 122°02'0 0.0
2014-Oct-25 07:20N 29°54' E 122°02'0 0.0
2014-Oct-25 06:26N 29°54' E 122°02'0 0.0
2014-Oct-25 05:29N 29°54' E 122°02'0 0.0
2014-Oct-25 04:29N 29°54' E 122°02'0 0.0
2014-Oct-25 03:29N 29°54' E 122°02'1 0.7
2014-Oct-25 02:34N 29°54' E 122°03'9 9.1
2014-Oct-25 01:33N 29°50' E 122°13'9 9.2
2014-Oct-25 00:33N 29°45' E 122°21'2 0.5
2014-Oct-24 20:12N 29°46' E 122°23'0 0.1
2014-Oct-24 19:30N 29°46' E 122°23'0 0.1
2014-Oct-24 18:24N 29°46' E 122°23'0 0.1
2014-Oct-24 17:30N 29°47' E 122°23'0 0.1
2014-Oct-24 16:30N 29°47' E 122°23'0 0.1
2014-Oct-24 15:24N 29°47' E 122°23'0 0.1
2014-Oct-24 13:07N 29°46' E 122°23'3 5.0
2014-Oct-24 12:34N 29°45' E 122°26'1110.9
2014-Oct-24 11:33N 29°48' E 122°38'1211.4
2014-Oct-24 10:32N 29°55' E 122°48'20011.5
2014-Oct-23 17:13N 33°13' E 123°21'  
Track history (hours):
 
Tides and Currents Weather Stations Pressure Air Temp Water Temp Dewpoint Dewpoint Depression Visibility Wind Speed Wind Dir Waves Ship Positions

Marchen Maersk

Last reported at 2014-Oct-30 04:27 UTC. Time now 2014-Oct-30 16:06 UTC.
Position N 22°05' E 113°53'.

Length 367 m; draft 13.2 m.

Type: Ship (hazmat cat A). MMSI: 220594000.

Date/timePositionNaut miles runAvg speedWind from/ knotsBaromVisibWave heightAir tempDewpointWater temp
2014-Oct-30 04:27N 22°05' E 113°53'6 7.2
2014-Oct-30 03:33N 22°11' E 113°50'1413.8
2014-Oct-30 02:34N 22°24' E 113°46'1413.7
2014-Oct-30 01:33N 22°38' E 113°42'0 0.0
2014-Oct-29 16:33N 22°38' E 113°41'1010.5
2014-Oct-29 15:33N 22°28' E 113°45'1313.1
2014-Oct-29 14:33N 22°15' E 113°48'1110.6
2014-Oct-29 13:34N 22°05' E 113°51'1111.0
2014-Oct-29 12:33N 21°54' E 113°52'18815.6
2014-Oct-29 00:30N 22°57' E 117°04'7818.8
2014-Oct-28 20:23N 23°38' E 118°15'2318.9
2014-Oct-28 19:09N 23°54' E 118°34'3218.6
2014-Oct-28 17:24N 24°16' E 118°60'41510.2
2014-Oct-27 00:33N 30°38' E 122°03'1 0.9
2014-Oct-26 23:31N 30°37' E 122°03'1010.0
2014-Oct-26 22:31N 30°33' E 122°14'13 2.5
2014-Oct-26 17:24N 30°31' E 122°28'8 9.3
2014-Oct-26 16:32N 30°29' E 122°38'1110.8
2014-Oct-26 15:32N 30°26' E 122°49'1111.6
2014-Oct-26 14:33N 30°20' E 123°00'1110.0
2014-Oct-26 13:31N 30°09' E 123°02'28 9.3
2014-Oct-26 10:30N 29°50' E 122°38'9 9.8
2014-Oct-26 09:33N 29°45' E 122°30'1111.1
2014-Oct-26 08:34N 29°46' E 122°17'1212.4
2014-Oct-26 07:33N 29°55' E 122°07'1313.1
2014-Oct-26 06:33N 29°57' E 121°52'2 1.5
2014-Oct-26 05:22N 29°57' E 121°50'0 0.0
2014-Oct-26 04:22N 29°57' E 121°50'0 0.0
2014-Oct-26 03:28N 29°57' E 121°50'0 0.0
2014-Oct-26 02:16N 29°57' E 121°50'0 0.0
2014-Oct-26 01:28N 29°57' E 121°50'0 0.0
2014-Oct-26 00:28N 29°57' E 121°50'0 0.0
2014-Oct-25 22:28N 29°57' E 121°50'0 0.0
2014-Oct-25 21:04N 29°57' E 121°50'0 0.0
2014-Oct-25 20:10N 29°57' E 121°50'0 0.0
2014-Oct-25 19:28N 29°57' E 121°50'0 0.0
2014-Oct-25 18:28N 29°57' E 121°50'1 0.8
2014-Oct-25 17:34N 29°57' E 121°51'7 6.8
2014-Oct-25 16:34N 29°58' E 121°59'6 4.9
2014-Oct-25 15:26N 29°54' E 122°02'0 0.0
2014-Oct-25 14:14N 29°54' E 122°02'0 0.0
2014-Oct-25 12:29N 29°54' E 122°02'0 0.0
2014-Oct-25 11:29N 29°54' E 122°02'0 0.0
2014-Oct-25 09:32N 29°54' E 122°02'0 0.0
2014-Oct-25 08:23N 29°54' E 122°02'0 0.0
2014-Oct-25 07:20N 29°54' E 122°02'0 0.0
2014-Oct-25 06:26N 29°54' E 122°02'0 0.0
2014-Oct-25 05:29N 29°54' E 122°02'0 0.0
2014-Oct-25 04:29N 29°54' E 122°02'0 0.0
2014-Oct-25 03:29N 29°54' E 122°02'1 0.7
2014-Oct-25 02:34N 29°54' E 122°03'9 9.1
2014-Oct-25 01:33N 29°50' E 122°13'9 9.2
2014-Oct-25 00:33N 29°45' E 122°21'2 0.5
2014-Oct-24 20:12N 29°46' E 122°23'0 0.1
2014-Oct-24 19:30N 29°46' E 122°23'0 0.1
2014-Oct-24 18:24N 29°46' E 122°23'0 0.1
2014-Oct-24 17:30N 29°47' E 122°23'0 0.1
2014-Oct-24 16:30N 29°47' E 122°23'0 0.1
2014-Oct-24 15:24N 29°47' E 122°23'0 0.1
2014-Oct-24 13:07N 29°46' E 122°23'3 5.0
2014-Oct-24 12:34N 29°45' E 122°26'1110.9
2014-Oct-24 11:33N 29°48' E 122°38'1211.4
2014-Oct-24 10:32N 29°55' E 122°48'20011.5
2014-Oct-23 17:13N 33°13' E 123°21'  

Dump ship's entire track history